Time;durP1;ratioP1;P1;durP2;ratioP2;P2;SDS_P1;SDS_P2;PMS_P1;PMS_P2;Temp;Humidity;BMP_temperature;BMP_pressure;BME280_temperature;BME280_humidity;BME280_pressure;Samples;Min_cycle;Max_cycle;Signal;HPM_P1;HPM_P2
2023/07/10 00:00:24;;;;;;;2.40;1.70;;;;;;;19.49;75.78;101914.88;5113810;28;20028;-81
2023/07/10 00:02:50;;;;;;;1.50;1.40;;;;;;;19.47;75.11;101915.84;5115147;28;20081;-81
2023/07/10 00:05:19;;;;;;;0.93;0.93;;;;;;;19.48;75.42;101921.03;5114210;28;20375;-81
2023/07/10 00:07:45;;;;;;;1.23;1.17;;;;;;;19.49;75.95;101920.13;5113975;28;20036;-81
2023/07/10 00:10:17;;;;;;;1.63;1.25;;;;;;;19.47;76.30;101916.72;5114663;28;20026;-81
2023/07/10 00:12:44;;;;;;;0.98;0.98;;;;;;;19.48;75.52;101921.03;5114825;28;20024;-81
2023/07/10 00:15:27;;;;;;;1.63;0.95;;;;;;;19.50;75.53;101926.28;5113503;28;20028;-80
2023/07/10 00:17:53;;;;;;;1.10;1.00;;;;;;;19.53;74.98;101934.91;5114840;28;20028;-81
2023/07/10 00:20:21;;;;;;;1.40;1.13;;;;;;;19.54;75.80;101923.47;5114406;28;20498;-81
2023/07/10 00:22:47;;;;;;;0.98;0.98;;;;;;;19.51;75.27;101928.84;5113736;28;20051;-81
2023/07/10 00:25:15;;;;;;;0.77;0.77;;;;;;;19.51;75.33;101934.09;5114439;28;20028;-81
2023/07/10 00:27:42;;;;;;;0.90;0.85;;;;;;;19.50;75.87;101921.00;5113718;28;20092;-82
2023/07/10 00:30:23;;;;;;;0.55;0.55;;;;;;;19.48;75.81;101931.56;5113935;28;20039;-81
2023/07/10 00:32:54;;;;;;;1.15;0.80;;;;;;;19.47;76.55;101929.88;5114020;28;20020;-81
2023/07/10 00:35:24;;;;;;;0.70;0.70;;;;;;;19.44;76.28;101925.56;5113137;28;20023;-81
2023/07/10 00:38:02;;;;;;;1.02;0.93;;;;;;;19.41;76.16;101928.31;5114092;28;20028;-81
2023/07/10 00:40:33;;;;;;;0.60;0.60;;;;;;;19.37;76.36;101923.19;5113775;28;20051;-81
2023/07/10 00:43:13;;;;;;;1.42;0.77;;;;;;;19.33;76.89;101911.06;5113628;28;20062;-82
2023/07/10 00:45:38;;;;;;;1.52;0.80;;;;;;;19.26;76.34;101913.91;5114289;28;20027;-81
2023/07/10 00:48:09;;;;;;;0.90;0.80;;;;;;;19.23;76.54;101929.81;5114171;28;20391;-81
2023/07/10 00:50:46;;;;;;;0.98;0.98;;;;;;;19.19;76.68;101929.97;5112818;28;20052;-81
2023/07/10 00:53:25;;;;;;;0.80;0.80;;;;;;;19.14;76.57;101935.38;5113928;28;20016;-81
2023/07/10 00:55:53;;;;;;;0.70;0.70;;;;;;;19.11;76.84;101927.63;5113125;28;20022;-81
2023/07/10 00:58:37;;;;;;;1.00;1.00;;;;;;;19.09;77.01;101940.78;5113574;28;20030;-79
2023/07/10 01:01:07;;;;;;;0.90;0.90;;;;;;;19.07;76.86;101934.75;5113797;28;20015;-80
2023/07/10 01:03:34;;;;;;;1.05;0.95;;;;;;;19.06;76.86;101927.78;5112862;28;20096;-80
2023/07/10 01:06:06;;;;;;;0.82;0.82;;;;;;;19.05;76.88;101927.81;5095291;28;20336;-79
2023/07/10 01:08:40;;;;;;;1.73;1.02;;;;;;;19.04;76.90;101924.31;5095143;28;20020;-80
2023/07/10 01:11:05;;;;;;;2.25;1.33;;;;;;;19.04;76.92;101921.69;5094527;28;20032;-81
2023/07/10 01:13:31;;;;;;;1.33;1.17;;;;;;;19.02;76.71;101928.78;5113144;28;20077;-81
2023/07/10 01:15:57;;;;;;;1.45;1.08;;;;;;;19.02;76.99;101934.03;5113605;28;20507;-81
2023/07/10 01:18:24;;;;;;;1.23;1.13;;;;;;;19.00;76.83;101933.22;5112282;28;20030;-80
2023/07/10 01:21:06;;;;;;;1.10;1.05;;;;;;;18.99;77.15;101934.13;5113549;28;20033;-81
2023/07/10 01:23:31;;;;;;;1.40;1.30;;;;;;;18.94;76.96;101930.81;5113322;28;20024;-81
2023/07/10 01:26:00;;;;;;;1.00;1.00;;;;;;;18.91;76.97;101931.75;5112742;28;20122;-81
2023/07/10 01:28:28;;;;;;;1.13;1.02;;;;;;;18.86;77.23;101933.66;5113147;28;20043;-81
2023/07/10 01:30:56;;;;;;;1.17;1.00;;;;;;;18.87;77.21;101927.50;5112174;28;20027;-80
2023/07/10 01:33:31;;;;;;;0.85;0.85;;;;;;;18.86;77.17;101928.41;5113074;28;20034;-81
2023/07/10 01:35:59;;;;;;;1.17;1.08;;;;;;;18.86;77.18;101919.66;5095536;28;20024;-80
2023/07/10 01:38:36;;;;;;;1.65;1.20;;;;;;;18.84;77.72;101924.94;5112346;28;20395;-80
2023/07/10 01:41:14;;;;;;;1.08;1.05;;;;;;;18.78;77.29;101907.59;5094979;28;20053;-80
2023/07/10 01:43:39;;;;;;;1.02;1.02;;;;;;;18.74;77.23;101905.13;5112793;28;20071;-80
2023/07/10 01:46:23;;;;;;;1.17;1.07;;;;;;;18.68;77.51;101909.69;5112461;28;20052;-80
2023/07/10 01:48:52;;;;;;;1.27;1.17;;;;;;;18.70;77.85;101929.78;5112881;28;20119;-80
2023/07/10 01:51:19;;;;;;;1.23;1.10;;;;;;;18.66;77.50;101927.28;5112642;28;20161;-80
2023/07/10 01:53:45;;;;;;;1.38;1.17;;;;;;;18.70;77.62;101929.78;5112295;28;20031;-80
2023/07/10 01:56:12;;;;;;;0.93;0.93;;;;;;;18.66;77.76;101926.41;5112755;28;20376;-80
2023/07/10 01:58:38;;;;;;;1.02;0.88;;;;;;;18.64;78.10;101936.97;5112926;28;20020;-80
2023/07/10 02:01:03;;;;;;;1.27;1.07;;;;;;;18.58;78.04;101915.28;5111342;28;20403;-80
2023/07/10 02:03:28;;;;;;;0.93;0.93;;;;;;;18.58;78.13;101925.78;5112951;28;20375;-80
2023/07/10 02:05:54;;;;;;;1.33;1.13;;;;;;;18.52;78.03;101927.69;5111407;28;20444;-80
2023/07/10 02:08:19;;;;;;;1.10;1.00;;;;;;;18.49;77.99;101929.56;5112004;28;20055;-80
2023/07/10 02:10:45;;;;;;;1.03;1.00;;;;;;;18.44;77.85;101927.09;5114856;28;20024;-80
2023/07/10 02:13:10;;;;;;;1.20;1.10;;;;;;;18.39;78.18;101921.13;5104266;22;20048;-80
2023/07/10 02:15:35;;;;;;;1.03;0.90;;;;;;;18.32;78.36;101914.31;5096694;28;20093;-80
2023/07/10 02:18:01;;;;;;;0.70;0.70;;;;;;;18.30;78.38;101921.38;5096979;28;20067;-80
2023/07/10 02:20:26;;;;;;;1.00;1.00;;;;;;;18.27;78.64;101927.59;5095567;28;20099;-80
2023/07/10 02:22:51;;;;;;;0.70;0.70;;;;;;;18.23;78.56;101923.38;5102152;22;20066;-80
2023/07/10 02:25:17;;;;;;;1.07;0.90;;;;;;;18.19;78.97;101946.22;5096533;28;20036;-80
2023/07/10 02:27:42;;;;;;;1.17;1.03;;;;;;;18.14;78.71;101936.75;5095502;28;20388;-80
2023/07/10 02:30:09;;;;;;;1.30;1.20;;;;;;;18.10;79.03;101943.88;5095848;28;20028;-80
2023/07/10 02:32:34;;;;;;;1.75;1.05;;;;;;;18.06;79.13;101955.41;5095964;28;20063;-80
2023/07/10 02:34:59;;;;;;;1.80;1.10;;;;;;;18.00;79.21;101955.56;5095852;28;20055;-80
2023/07/10 02:37:25;;;;;;;1.27;1.20;;;;;;;17.98;79.32;101957.34;5095944;28;20030;-80
2023/07/10 02:39:50;;;;;;;1.13;1.03;;;;;;;17.94;79.43;101955.72;5096291;28;20103;-80
2023/07/10 02:42:15;;;;;;;1.13;1.00;;;;;;;17.89;79.82;101959.31;5083222;28;20028;-80
2023/07/10 02:44:41;;;;;;;1.20;1.10;;;;;;;17.85;79.53;101952.41;5075831;28;20052;-80
2023/07/10 02:47:06;;;;;;;2.13;1.00;;;;;;;17.82;79.60;101952.53;5075810;28;20317;-80
2023/07/10 02:49:31;;;;;;;1.33;1.23;;;;;;;17.83;79.69;101950.75;5075230;28;20057;-80
2023/07/10 02:51:57;;;;;;;0.87;0.87;;;;;;;17.80;79.79;101953.44;5075800;28;20099;-80
2023/07/10 02:54:22;;;;;;;0.90;0.83;;;;;;;17.77;79.90;101958.81;5075139;28;20477;-80
2023/07/10 02:56:47;;;;;;;1.03;1.00;;;;;;;17.72;79.85;101949.28;5085640;28;20085;-80
2023/07/10 02:59:15;;;;;;;1.17;1.03;;;;;;;17.69;79.96;101946.75;5095388;28;20024;-80
2023/07/10 03:01:41;;;;;;;1.00;0.90;;;;;;;17.68;79.86;101952.88;5095712;28;20031;-80
2023/07/10 03:04:06;;;;;;;1.33;1.23;;;;;;;17.61;79.85;101946.09;5094864;28;20388;-80
2023/07/10 03:06:31;;;;;;;0.80;0.80;;;;;;;17.66;80.12;101961.72;5095791;28;20084;-80
2023/07/10 03:08:58;;;;;;;2.70;1.20;;;;;;;17.62;80.02;101963.56;5095694;28;20460;-80
2023/07/10 03:11:24;;;;;;;1.20;0.95;;;;;;;17.62;80.38;101960.94;5094791;28;20054;-80
2023/07/10 03:13:49;;;;;;;1.30;1.20;;;;;;;17.59;80.84;101966.28;5095623;28;20063;-80
2023/07/10 03:16:16;;;;;;;0.80;0.80;;;;;;;17.55;81.03;101967.28;5094505;28;20066;-80
2023/07/10 03:18:41;;;;;;;;;;;;;;;17.51;80.92;101973.50;5096211;28;20024;-80
2023/07/10 03:21:08;;;;;;;1.20;1.10;;;;;;;17.43;81.17;101960.56;5094440;28;19919;-80
2023/07/10 03:23:33;;;;;;;;;;;;;;;17.43;80.95;101974.56;5093987;28;20071;-80
2023/07/10 03:25:59;;;;;;;2.33;1.50;;;;;;;17.41;81.07;101973.75;5095356;28;20296;-80
2023/07/10 03:28:24;;;;;;;1.40;1.30;;;;;;;17.41;82.10;101979.00;5095076;28;20056;-80
2023/07/10 03:30:49;;;;;;;2.00;1.20;;;;;;;17.40;81.44;101982.50;5094910;28;20032;-80
2023/07/10 03:33:17;;;;;;;1.60;1.50;;;;;;;17.37;81.18;101985.22;5095051;28;20023;-80
2023/07/10 03:35:48;;;;;;;1.40;1.30;;;;;;;17.36;81.53;101983.47;5095238;28;20031;-80
2023/07/10 03:38:14;;;;;;;1.58;1.48;;;;;;;17.34;81.61;101985.28;5094338;28;20024;-80
2023/07/10 03:40:48;;;;;;;1.88;1.45;;;;;;;17.32;81.33;101987.09;5094843;28;20186;-80
2023/07/10 03:43:14;;;;;;;1.63;1.50;;;;;;;17.30;81.50;101986.28;5094524;28;20357;-80
2023/07/10 03:45:41;;;;;;;1.33;1.23;;;;;;;17.32;82.42;101991.47;5094433;28;20030;-80
2023/07/10 03:48:06;;;;;;;1.50;1.40;;;;;;;17.27;82.40;101987.22;5094991;28;20115;-80
2023/07/10 03:50:34;;;;;;;1.90;1.77;;;;;;;17.27;81.88;101986.34;5094619;28;20099;-80
2023/07/10 03:52:59;;;;;;;1.80;1.67;;;;;;;17.26;81.75;101977.63;5094196;28;20080;-80
2023/07/10 03:55:24;;;;;;;2.20;1.70;;;;;;;17.24;81.97;101978.53;5094231;28;20115;-80
2023/07/10 03:57:50;;;;;;;1.77;1.67;;;;;;;17.25;82.20;101990.75;5094656;28;20074;-80
2023/07/10 04:00:15;;;;;;;1.90;1.53;;;;;;;17.19;81.96;101983.06;5093400;28;20095;-80
2023/07/10 04:02:41;;;;;;;1.67;1.57;;;;;;;17.21;82.24;101994.38;5094692;28;20024;-80
2023/07/10 04:05:06;;;;;;;1.83;1.67;;;;;;;17.18;82.19;101990.06;5094195;28;20050;-80
2023/07/10 04:07:31;;;;;;;2.03;1.70;;;;;;;17.18;82.34;101997.91;5093921;28;20035;-80
2023/07/10 04:09:57;;;;;;;1.70;1.60;;;;;;;17.19;82.26;102012.75;5093962;28;20028;-80
2023/07/10 04:12:22;;;;;;;1.50;1.40;;;;;;;17.19;82.37;102011.91;5094163;28;20107;-80
2023/07/10 04:14:47;;;;;;;3.13;1.80;;;;;;;17.18;82.37;102012.81;5093453;28;20469;-80
2023/07/10 04:17:15;;;;;;;1.80;1.70;;;;;;;17.19;82.21;102022.41;5093622;28;20084;-80
2023/07/10 04:19:41;;;;;;;1.70;1.60;;;;;;;17.16;82.69;102020.72;5075311;28;20032;-80
2023/07/10 04:22:06;;;;;;;1.60;1.50;;;;;;;17.18;82.95;102013.66;5093751;28;20016;-82
2023/07/10 04:24:32;;;;;;;1.80;1.70;;;;;;;17.17;83.32;101996.19;5094084;28;20424;-80
2023/07/10 04:26:57;;;;;;;1.40;1.30;;;;;;;17.18;82.67;102008.41;5093292;28;20016;-81
2023/07/10 04:29:23;;;;;;;1.63;1.53;;;;;;;17.22;82.86;102009.22;5094072;28;20024;-80
2023/07/10 04:31:49;;;;;;;1.80;1.70;;;;;;;17.21;82.69;101999.63;5094079;28;20035;-80
2023/07/10 04:34:14;;;;;;;1.50;1.40;;;;;;;17.23;83.06;102003.94;5092946;28;20460;-80
2023/07/10 04:36:40;;;;;;;1.57;1.47;;;;;;;17.28;83.89;102006.44;5093785;28;20032;-80
2023/07/10 04:39:05;;;;;;;1.83;1.38;;;;;;;17.35;82.92;102015.88;5093693;28;20024;-80
2023/07/10 04:41:31;;;;;;;1.50;1.40;;;;;;;17.38;83.75;102010.56;5092879;28;20073;-81
2023/07/10 04:43:56;;;;;;;1.70;1.50;;;;;;;17.39;82.99;101998.31;5093628;28;20104;-81
2023/07/10 04:46:22;;;;;;;1.50;1.33;;;;;;;17.51;83.33;102008.47;5092518;28;20087;-80
2023/07/10 04:48:47;;;;;;;1.20;1.20;;;;;;;17.59;82.89;102018.75;5092964;28;20099;-81
2023/07/10 04:51:15;;;;;;;1.90;1.40;;;;;;;17.66;83.06;102015.09;5092703;28;20071;-80
2023/07/10 04:53:40;;;;;;;1.40;1.30;;;;;;;17.75;83.30;102024.47;5093202;28;20047;-80
2023/07/10 04:56:08;;;;;;;1.20;1.20;;;;;;;17.81;82.65;102020.81;5092498;28;20503;-81
2023/07/10 04:58:49;;;;;;;1.30;1.20;;;;;;;17.91;83.45;102020.53;5093492;28;20448;-81
2023/07/10 05:01:15;;;;;;;1.55;1.45;;;;;;;17.94;82.34;102022.22;5093448;28;20062;-80
2023/07/10 05:03:40;;;;;;;1.37;1.27;;;;;;;17.99;83.82;102027.38;5092640;28;20063;-79
2023/07/10 05:06:05;;;;;;;1.50;1.40;;;;;;;18.00;82.47;102027.34;5093263;28;20286;-80
2023/07/10 05:08:31;;;;;;;2.70;1.50;;;;;;;18.02;82.32;102028.13;5093320;28;20057;-79
2023/07/10 05:10:56;;;;;;;2.10;1.27;;;;;;;18.05;82.89;102027.22;5092306;28;20490;-78
2023/07/10 05:13:26;;;;;;;1.40;1.30;;;;;;;18.09;84.21;102035.88;5093153;28;20099;-79
2023/07/10 05:15:54;;;;;;;1.70;1.60;;;;;;;18.05;83.04;102030.69;5092408;28;20043;-80
2023/07/10 05:18:19;;;;;;;2.33;1.90;;;;;;;18.08;83.33;102032.38;5093142;28;20059;-79
2023/07/10 05:20:46;;;;;;;2.77;1.53;;;;;;;18.11;83.59;102034.06;5093023;28;20391;-79
2023/07/10 05:23:12;;;;;;;1.30;1.20;;;;;;;18.09;82.72;102033.25;5091797;28;20075;-81
2023/07/10 05:25:37;;;;;;;1.60;1.50;;;;;;;18.13;83.22;102041.00;5093355;28;20025;-82
2023/07/10 05:28:03;;;;;;;1.17;1.10;;;;;;;18.15;83.05;102046.19;5092214;28;20048;-81
2023/07/10 05:30:29;;;;;;;1.37;1.27;;;;;;;18.17;83.29;102047.91;5092174;28;20078;-81
2023/07/10 05:33:03;;;;;;;1.50;1.40;;;;;;;18.19;84.18;102045.22;5093147;28;20028;-81
2023/07/10 05:35:28;;;;;;;1.23;1.13;;;;;;;18.19;83.72;102042.59;5092972;28;20020;-81
2023/07/10 05:37:53;;;;;;;1.40;1.30;;;;;;;18.21;83.05;102048.66;5092115;28;20031;-82
2023/07/10 05:40:19;;;;;;;0.87;0.87;;;;;;;18.22;83.67;102042.50;5092912;28;20024;-81
2023/07/10 05:42:44;;;;;;;0.90;0.90;;;;;;;18.27;82.89;102048.47;5093213;28;20016;-80
2023/07/10 05:45:18;;;;;;;0.67;0.67;;;;;;;18.31;82.93;102049.25;5091272;28;20061;-79
2023/07/10 05:47:43;;;;;;;0.98;0.90;;;;;;;18.26;83.44;102030.97;5092618;28;20487;-80
2023/07/10 05:50:11;;;;;;;1.70;1.60;;;;;;;18.27;84.59;102030.09;5092621;28;20035;-80
2023/07/10 05:52:40;;;;;;;1.60;1.50;;;;;;;18.25;83.38;102026.63;5092250;28;20024;-81
2023/07/10 05:55:05;;;;;;;1.90;1.20;;;;;;;18.40;83.28;102035.88;5092993;28;20020;-81
2023/07/10 05:57:31;;;;;;;1.17;1.13;;;;;;;18.41;83.62;102034.94;5091885;28;20028;-80
2023/07/10 06:00:06;;;;;;;1.30;1.20;;;;;;;18.42;82.45;102033.19;5092150;28;20024;-81
2023/07/10 06:02:34;;;;;;;1.02;0.98;;;;;;;18.54;82.62;102045.97;5091441;28;20069;-80
2023/07/10 06:05:02;;;;;;;1.13;1.05;;;;;;;18.59;82.30;102044.03;5092433;28;20143;-80
2023/07/10 06:07:28;;;;;;;0.77;0.77;;;;;;;18.63;82.66;102032.53;5091708;28;20036;-80
2023/07/10 06:09:57;;;;;;;1.10;1.00;;;;;;;18.68;83.54;102041.16;5092770;28;20039;-80
2023/07/10 06:12:23;;;;;;;0.90;0.90;;;;;;;18.88;82.96;102049.31;5091230;28;20085;-80
2023/07/10 06:14:48;;;;;;;1.17;1.00;;;;;;;19.43;83.94;102036.19;5092565;28;20050;-81
2023/07/10 06:17:13;;;;;;;0.70;0.70;;;;;;;20.90;82.98;102053.78;5092226;28;20032;-81
2023/07/10 06:19:39;;;;;;;1.10;1.10;;;;;;;22.47;79.40;102040.91;5091929;28;20047;-81
2023/07/10 06:22:06;;;;;;;1.83;0.83;;;;;;;23.39;75.15;102053.28;5092584;28;20044;-80
2023/07/10 06:24:31;;;;;;;1.92;1.00;;;;;;;23.50;72.13;102057.19;5092315;28;20048;-81
2023/07/10 06:26:57;;;;;;;0.70;0.70;;;;;;;23.39;70.76;102055.09;5091704;28;20387;-82
2023/07/10 06:29:25;;;;;;;1.30;1.20;;;;;;;23.44;69.21;102058.34;5092574;28;20063;-82
2023/07/10 06:31:51;;;;;;;0.98;0.98;;;;;;;23.42;69.65;102061.09;5145715;22;20052;-82
2023/07/10 06:34:16;;;;;;;3.75;2.10;;;;;;;23.41;66.58;102072.63;5091317;28;20028;-82
2023/07/10 06:36:42;;;;;;;2.50;1.90;;;;;;;23.47;66.46;102070.59;5092315;28;20361;-82
2023/07/10 06:39:07;;;;;;;1.73;1.20;;;;;;;23.59;68.07;102070.84;5092404;28;20020;-82
2023/07/10 06:41:32;;;;;;;1.87;1.47;;;;;;;23.79;66.80;102068.94;5091339;28;20024;-84
2023/07/10 06:43:58;;;;;;;1.83;1.20;;;;;;;23.98;64.23;102071.53;5092702;28;20024;-83
2023/07/10 06:46:24;;;;;;;2.73;1.67;;;;;;;24.09;64.67;102078.91;5092337;28;20024;-83
2023/07/10 06:48:50;;;;;;;2.58;1.88;;;;;;;24.08;64.06;102077.19;5091892;28;20115;-82
2023/07/10 06:51:18;;;;;;;1.70;1.50;;;;;;;24.13;65.30;102079.59;5091529;28;20059;-83
2023/07/10 06:53:43;;;;;;;2.67;1.70;;;;;;;24.13;64.51;102071.66;5092271;28;20464;-83
2023/07/10 06:56:09;;;;;;;1.40;1.30;;;;;;;24.21;62.13;102080.88;5092412;28;20078;-83
2023/07/10 06:58:35;;;;;;;1.85;1.58;;;;;;;24.25;60.53;102081.59;5096031;28;20472;-82
2023/07/10 07:01:01;;;;;;;3.13;1.75;;;;;;;24.28;60.61;102080.56;5095960;28;20024;-83
2023/07/10 07:03:27;;;;;;;1.10;1.10;;;;;;;24.30;62.95;102084.00;5094937;28;20106;-82
2023/07/10 07:05:53;;;;;;;2.70;1.80;;;;;;;24.32;61.60;102084.78;5095890;28;20107;-82
2023/07/10 07:08:19;;;;;;;3.85;1.60;;;;;;;24.23;62.39;102078.19;5095246;28;20503;-84
2023/07/10 07:10:46;;;;;;;;;;;;;;;24.34;59.97;102077.56;5095603;28;20044;-83
2023/07/10 07:13:11;;;;;;;2.35;1.27;;;;;;;24.32;64.73;102071.53;5095737;28;19919;-84
2023/07/10 07:15:37;;;;;;;3.28;1.90;;;;;;;24.40;61.49;102073.72;5095060;28;20027;-84
2023/07/10 07:18:03;;;;;;;2.43;1.80;;;;;;;24.35;56.99;102079.28;5095506;28;20111;-83
2023/07/10 07:20:29;;;;;;;3.08;1.80;;;;;;;24.30;61.71;102082.19;5095787;28;20020;-84
2023/07/10 07:22:55;;;;;;;;;;;;;;;24.32;63.67;102082.97;5095092;28;20050;-83
2023/07/10 07:25:20;;;;;;;2.63;1.63;;;;;;;24.41;62.88;102078.09;5095489;28;19915;-83
2023/07/10 07:27:45;;;;;;;1.93;1.70;;;;;;;24.43;62.13;102076.22;5095368;28;20282;-84
2023/07/10 07:30:11;;;;;;;2.73;1.43;;;;;;;24.58;61.86;102083.34;5094202;28;20030;-82
2023/07/10 07:32:37;;;;;;;1.90;1.58;;;;;;;24.65;58.55;102090.03;5095103;28;20399;-83
2023/07/10 07:35:02;;;;;;;2.67;1.48;;;;;;;24.72;62.35;102097.66;5095355;28;20024;-83
2023/07/10 07:37:28;;;;;;;1.23;1.00;;;;;;;24.74;61.14;102096.66;5094394;28;20028;-83
2023/07/10 07:40:03;;;;;;;1.43;1.30;;;;;;;24.81;62.66;102100.69;5095033;28;20058;-84
2023/07/10 07:42:28;;;;;;;1.55;1.30;;;;;;;24.85;62.31;102087.25;5083098;28;20040;-84
2023/07/10 07:47:57;;;;;;;2.03;1.48;;;;;;;24.93;58.94;102091.19;5095688;28;20043;-84
2023/07/10 07:50:22;;;;;;;1.70;1.30;;;;;;;24.97;61.65;102092.69;5094805;28;20392;-84
2023/07/10 07:52:48;;;;;;;2.50;1.50;;;;;;;25.01;61.42;102093.38;5094102;28;20468;-84
2023/07/10 07:55:13;;;;;;;1.63;1.17;;;;;;;25.13;60.20;102100.66;5094368;28;20035;-83
2023/07/10 07:57:39;;;;;;;1.70;1.50;;;;;;;25.11;60.56;102089.25;5093866;28;20309;-83
2023/07/10 08:00:09;;;;;;;1.40;1.30;;;;;;;25.11;58.45;102089.25;5095068;28;20142;-84
2023/07/10 08:02:34;;;;;;;2.97;1.23;;;;;;;25.12;61.09;102090.13;5094807;28;20102;-84
2023/07/10 08:05:00;;;;;;;1.20;1.00;;;;;;;25.17;60.59;102087.19;5094423;28;20037;-84
2023/07/10 08:07:27;;;;;;;2.15;1.10;;;;;;;25.23;58.51;102090.34;5093788;28;20047;-84
2023/07/10 08:09:53;;;;;;;0.90;0.90;;;;;;;25.20;57.00;102079.91;5095448;28;20469;-84
2023/07/10 08:12:18;;;;;;;0.73;0.70;;;;;;;25.25;58.96;102079.63;5093714;28;20074;-84
2023/07/10 08:14:46;;;;;;;0.63;0.63;;;;;;;25.26;58.70;102076.03;5094766;28;20025;-84
2023/07/10 08:17:11;;;;;;;3.70;1.73;;;;;;;25.05;56.85;102078.16;5094102;28;20033;-83
2023/07/10 08:19:37;;;;;;;2.07;1.60;;;;;;;25.02;52.93;102087.13;5093571;28;20392;-83
2023/07/10 08:22:02;;;;;;;2.80;1.80;;;;;;;24.85;54.36;102085.44;5094259;28;20468;-83
2023/07/10 08:24:29;;;;;;;3.15;1.77;;;;;;;24.82;56.92;102082.97;5094021;28;20027;-83
2023/07/10 08:26:55;;;;;;;1.67;1.40;;;;;;;24.92;57.56;102086.81;5093344;28;20028;-83
2023/07/10 08:29:22;;;;;;;2.55;1.55;;;;;;;24.92;57.06;102076.19;5094396;28;20035;-83
2023/07/10 08:31:52;;;;;;;1.75;1.10;;;;;;;25.00;57.40;102082.84;5094492;28;20056;-83
2023/07/10 08:34:17;;;;;;;1.67;1.35;;;;;;;25.06;57.32;102086.00;5093423;28;20384;-83
2023/07/10 08:36:43;;;;;;;1.57;1.10;;;;;;;25.17;57.09;102089.84;5094241;28;20020;-84
2023/07/10 08:39:09;;;;;;;2.03;1.40;;;;;;;25.14;56.36;102088.25;5093319;28;20039;-84
2023/07/10 08:41:35;;;;;;;1.13;1.02;;;;;;;25.24;57.66;102080.56;5093620;28;20027;-83
2023/07/10 08:44:00;;;;;;;2.00;1.03;;;;;;;25.39;56.19;102086.81;5094561;28;20036;-83
2023/07/10 08:46:27;;;;;;;0.60;0.60;;;;;;;25.47;56.37;102086.38;5093573;28;20059;-83
2023/07/10 08:49:22;;;;;;;1.58;0.80;;;;;;;25.51;52.32;102082.59;5093205;28;20281;-83
2023/07/10 08:51:59;;;;;;;2.00;1.35;;;;;;;25.42;53.45;102082.19;5094013;28;20036;-83
2023/07/10 08:54:24;;;;;;;1.58;0.90;;;;;;;25.41;54.42;102072.53;5093482;28;20066;-83
2023/07/10 08:57:04;;;;;;;0.90;0.90;;;;;;;25.54;55.55;102083.25;5093792;28;20044;-83
2023/07/10 08:59:34;;;;;;;1.13;0.80;;;;;;;25.72;54.27;102077.81;5093925;28;20028;-83
2023/07/10 09:02:00;;;;;;;0.65;0.65;;;;;;;25.78;54.77;102071.28;5093562;28;20019;-83
2023/07/10 09:04:29;;;;;;;1.63;0.77;;;;;;;25.85;55.80;102075.25;5093916;28;20066;-83
2023/07/10 09:06:59;;;;;;;1.30;0.85;;;;;;;25.94;54.92;102079.16;5093310;28;20032;-83
2023/07/10 09:09:45;;;;;;;1.15;1.02;;;;;;;26.02;53.97;102079.53;5092975;28;20089;-83
2023/07/10 09:12:39;;;;;;;0.80;0.80;;;;;;;26.15;54.27;102087.63;5093429;28;20022;-83
2023/07/10 09:15:13;;;;;;;1.15;0.80;;;;;;;26.28;53.37;102091.25;5092473;28;20099;-83
2023/07/10 09:18:05;;;;;;;0.77;0.77;;;;;;;26.36;51.89;102083.63;5094038;28;20102;-84
2023/07/10 09:20:31;;;;;;;0.70;0.60;;;;;;;26.47;52.82;102087.41;5092721;28;20032;-84
2023/07/10 09:22:58;;;;;;;3.47;1.57;;;;;;;26.33;46.67;102075.88;5092609;28;20064;-80
2023/07/10 09:25:24;;;;;;;2.58;1.42;;;;;;;26.31;52.73;102083.09;5093273;28;20638;-81
2023/07/10 09:27:51;;;;;;;3.40;1.60;;;;;;;26.38;52.13;102078.22;5093525;28;20031;-82
2023/07/10 09:30:34;;;;;;;;;;;;;;;26.38;47.80;102086.22;5092777;28;20032;-82
2023/07/10 09:33:04;;;;;;;1.90;1.23;;;;;;;26.54;51.42;102082.56;5093105;28;20078;-81
2023/07/10 09:35:31;;;;;;;1.13;1.02;;;;;;;26.77;51.21;102079.28;5083527;28;20027;-81
2023/07/10 09:37:56;;;;;;;;;;;;;;;27.01;50.30;102081.31;5091893;28;20549;-82
2023/07/10 09:40:49;;;;;;;4.65;1.55;;;;;;;27.03;47.84;102078.53;5091516;28;19912;-81
2023/07/10 09:43:20;;;;;;;2.83;1.55;;;;;;;26.98;49.36;102085.06;5091512;28;20042;-81
2023/07/10 09:45:51;;;;;;;1.50;1.10;;;;;;;27.05;49.66;102085.50;5093011;28;20103;-82
2023/07/10 09:48:30;;;;;;;0.98;0.93;;;;;;;27.18;48.39;102085.53;5092985;28;20102;-81
2023/07/10 09:50:56;;;;;;;1.55;1.00;;;;;;;27.23;47.00;102078.09;5092114;28;20020;-81
2023/07/10 09:53:30;;;;;;;0.75;0.75;;;;;;;27.39;48.06;102077.06;5091434;28;20119;-82
2023/07/10 09:55:55;;;;;;;0.82;0.60;;;;;;;27.53;47.20;102082.34;5092702;28;20021;-81
2023/07/10 09:58:21;;;;;;;;;;;;;;;27.61;47.98;102081.81;5091164;28;20530;-81
2023/07/10 10:00:48;;;;;;;1.43;1.03;;;;;;;27.67;44.33;102086.72;5092305;28;19940;-82
2023/07/10 10:03:38;;;;;;;1.63;1.20;;;;;;;27.67;46.00;102085.88;5092697;28;20130;-82
2023/07/10 10:06:04;;;;;;;0.90;0.90;;;;;;;27.73;48.37;102082.78;5092232;28;20024;-82
2023/07/10 10:08:42;;;;;;;;;;;;;;;27.74;46.41;102076.47;5092637;28;20119;-82
2023/07/10 10:11:12;;;;;;;2.03;1.02;;;;;;;27.67;46.99;102081.38;5092671;28;19912;-82
2023/07/10 10:13:56;;;;;;;1.73;1.00;;;;;;;27.76;46.27;102074.56;5092171;28;20376;-82
2023/07/10 10:16:38;;;;;;;0.77;0.77;;;;;;;27.89;47.98;102064.75;5091950;28;20027;-82
2023/07/10 10:19:21;;;;;;;0.98;0.88;;;;;;;28.07;44.56;102068.91;5091821;28;20425;-82
2023/07/10 10:21:47;;;;;;;2.72;1.05;;;;;;;28.09;45.33;102061.69;5092820;28;20043;-82
2023/07/10 10:24:12;;;;;;;;;;;;;;;28.23;46.38;102074.03;5092718;28;20421;-82
2023/07/10 10:26:41;;;;;;;1.50;1.10;;;;;;;28.29;44.86;102074.44;5091688;28;20318;-82
2023/07/10 10:29:21;;;;;;;1.70;1.05;;;;;;;28.40;46.36;102068.31;5092196;28;20086;-82
2023/07/10 10:32:13;;;;;;;1.55;1.00;;;;;;;28.53;45.86;102076.31;5094693;28;20044;-82
2023/07/10 10:35:22;;;;;;;1.90;1.17;;;;;;;28.71;44.33;102070.59;5096011;28;20028;-82
2023/07/10 10:38:06;;;;;;;1.45;0.98;;;;;;;28.86;45.82;102073.97;5095065;28;20032;-82
2023/07/10 10:40:45;;;;;;;0.98;0.90;;;;;;;29.01;42.90;102071.97;5096140;28;20031;-82
2023/07/10 10:43:31;;;;;;;0.50;0.50;;;;;;;29.20;44.78;102074.97;5096190;28;20036;-82
2023/07/10 10:46:05;;;;;;;1.27;1.00;;;;;;;29.37;44.52;102071.06;5096242;28;20024;-82
2023/07/10 10:48:45;;;;;;;1.88;0.88;;;;;;;29.58;42.22;102073.03;5095979;28;20368;-82
2023/07/10 10:51:55;;;;;;;2.67;1.20;;;;;;;29.70;43.28;102061.41;5096577;28;20028;-82
2023/07/10 10:54:31;;;;;;;2.60;1.20;;;;;;;29.72;44.17;102069.28;5095210;28;20031;-82
2023/07/10 10:57:02;;;;;;;1.27;1.00;;;;;;;29.78;41.76;102070.63;5095872;28;20050;-82
2023/07/10 10:59:43;;;;;;;3.80;1.40;;;;;;;29.68;41.33;102070.50;5095637;28;20114;-81
2023/07/10 11:02:26;;;;;;;1.60;1.15;;;;;;;29.48;43.17;102075.56;5095182;28;20039;-82
2023/07/10 11:05:17;;;;;;;1.70;1.15;;;;;;;29.18;43.58;102092.94;5095894;28;20051;-81
2023/07/10 11:07:50;;;;;;;1.20;0.90;;;;;;;29.01;43.00;102094.22;5058633;28;20527;-81
2023/07/10 11:10:28;;;;;;;0.70;0.55;;;;;;;28.98;44.16;102083.75;5095713;28;20074;-81
2023/07/10 11:12:55;;;;;;;1.48;0.77;;;;;;;28.95;44.14;102087.50;5095746;28;20380;-82
2023/07/10 11:15:22;;;;;;;0.77;0.77;;;;;;;28.75;44.79;102083.63;5094805;28;20081;-82
2023/07/10 11:17:55;;;;;;;0.95;0.63;;;;;;;28.50;44.86;102087.22;5095776;28;20024;-81
2023/07/10 11:20:24;;;;;;;0.52;0.52;;;;;;;28.29;45.16;102082.47;5095315;28;20391;-82
2023/07/10 11:22:57;;;;;;;0.88;0.85;;;;;;;28.14;45.41;102067.53;5094469;28;20016;-83
2023/07/10 11:25:42;;;;;;;0.60;0.60;;;;;;;28.08;45.00;102066.16;5095503;28;20404;-80
2023/07/10 11:28:27;;;;;;;0.83;0.40;;;;;;;28.08;45.57;102066.16;5095118;28;20052;-82
2023/07/10 11:31:18;;;;;;;1.17;0.50;;;;;;;28.27;45.13;102062.16;5094678;28;20048;-82
2023/07/10 11:33:49;;;;;;;0.45;0.43;;;;;;;28.58;45.68;102058.13;5095386;28;20020;-82
2023/07/10 11:36:34;;;;;;;0.65;0.50;;;;;;;28.86;44.21;102057.94;5094104;28;20357;-82
2023/07/10 11:39:05;;;;;;;1.60;0.85;;;;;;;29.02;41.88;102061.19;5095335;28;20030;-82